createdAt,value
2023-02-11T00:00:42.642Z,102375.06
2023-02-11T00:03:09.738Z,102377.44
2023-02-11T00:05:37.141Z,102375.44
2023-02-11T00:08:03.815Z,102368.34
2023-02-11T00:10:30.499Z,102372.72
2023-02-11T00:12:57.178Z,102372.78
2023-02-11T00:15:23.796Z,102376.66
2023-02-11T00:17:50.353Z,102376.47
2023-02-11T00:20:16.999Z,102380.31
2023-02-11T00:22:43.797Z,102375.72
2023-02-11T00:25:10.569Z,102381.25
2023-02-11T00:27:37.818Z,102382.72
2023-02-11T00:30:05.468Z,102377.59
2023-02-11T00:32:32.386Z,102376.63
2023-02-11T00:34:58.950Z,102377.69
2023-02-11T00:37:25.543Z,102375.13
2023-02-11T00:39:52.205Z,102372.75
2023-02-11T00:42:19.871Z,102367.41
2023-02-11T00:44:46.427Z,102374.00
2023-02-11T00:47:13.009Z,102364.88
2023-02-11T00:49:40.457Z,102362.47
2023-02-11T00:52:07.351Z,102359.72
2023-02-11T00:54:33.917Z,102355.47
2023-02-11T00:57:00.676Z,102353.75
2023-02-11T00:59:27.364Z,102347.78
2023-02-11T01:01:53.981Z,102347.44
2023-02-11T01:04:20.589Z,102345.53
2023-02-11T01:06:47.191Z,102342.88
2023-02-11T01:09:13.895Z,102346.53
2023-02-11T01:11:40.502Z,102336.50
2023-02-11T01:14:07.045Z,102327.97
2023-02-11T01:16:33.628Z,102330.72
2023-02-11T01:19:00.250Z,102324.81
2023-02-11T01:21:26.862Z,102331.47
2023-02-11T01:23:53.501Z,102327.44
2023-02-11T01:26:20.305Z,102323.31
2023-02-11T01:28:47.000Z,102326.97
2023-02-11T01:31:14.291Z,102315.44
2023-02-11T01:33:41.026Z,102325.28
2023-02-11T01:36:08.204Z,102313.34
2023-02-11T01:38:35.510Z,102305.56
2023-02-11T01:41:05.922Z,102312.06
2023-02-11T01:43:35.908Z,102318.66
2023-02-11T01:46:20.116Z,102303.63
2023-02-11T01:48:55.458Z,102305.81
2023-02-11T01:51:27.379Z,102306.41
2023-02-11T01:54:14.407Z,102301.81
2023-02-11T01:57:05.815Z,102295.88
2023-02-11T01:59:46.023Z,102294.09
2023-02-11T02:02:15.782Z,102289.59
2023-02-11T02:05:05.183Z,102288.47
2023-02-11T02:07:39.066Z,102283.25
2023-02-11T02:10:13.542Z,102275.09
2023-02-11T02:12:40.108Z,102274.13
2023-02-11T02:15:22.221Z,102279.03
2023-02-11T02:18:17.374Z,102269.97
2023-02-11T02:21:02.693Z,102270.22
2023-02-11T02:24:04.682Z,102261.22
2023-02-11T02:26:37.296Z,102269.56
2023-02-11T02:29:22.395Z,102261.56
2023-02-11T02:32:11.740Z,102258.66
2023-02-11T02:34:58.520Z,102261.09
2023-02-11T02:37:33.085Z,102251.72
2023-02-11T02:40:07.621Z,102257.13
2023-02-11T02:42:34.610Z,102266.44
2023-02-11T02:45:01.323Z,102258.50
2023-02-11T02:47:28.058Z,102254.69
2023-02-11T02:49:54.594Z,102253.38
2023-02-11T02:52:30.133Z,102255.44
2023-02-11T02:55:17.927Z,102256.25
2023-02-11T02:58:11.886Z,102255.19
2023-02-11T03:00:52.847Z,102253.44
2023-02-11T03:03:26.721Z,102254.09
2023-02-11T03:06:22.460Z,102254.75
2023-02-11T03:09:01.583Z,102252.53
2023-02-11T03:11:29.245Z,102248.91
2023-02-11T03:13:57.473Z,102248.34
2023-02-11T03:16:27.861Z,102244.63
2023-02-11T03:19:06.667Z,102241.41
2023-02-11T03:21:36.573Z,102252.84
2023-02-11T03:24:06.131Z,102244.84
2023-02-11T03:26:32.683Z,102242.19
2023-02-11T03:29:08.064Z,102246.38
2023-02-11T03:31:47.774Z,102246.50
2023-02-11T03:34:41.186Z,102244.09
2023-02-11T03:37:36.883Z,102239.56
2023-02-11T03:40:06.622Z,102248.53
2023-02-11T03:42:39.855Z,102241.75
2023-02-11T03:45:10.761Z,102236.75
2023-02-11T03:47:40.237Z,102232.66
2023-02-11T03:50:09.110Z,102234.78
2023-02-11T03:52:37.962Z,102229.50
2023-02-11T03:55:11.005Z,102242.28
2023-02-11T03:57:38.129Z,102226.44
2023-02-11T04:00:05.830Z,102228.72
2023-02-11T04:02:35.568Z,102222.84
2023-02-11T04:05:02.603Z,102229.59
2023-02-11T04:07:29.479Z,102227.91
2023-02-11T04:09:56.043Z,102236.00
2023-02-11T04:12:22.737Z,102228.00
2023-02-11T04:14:49.327Z,102231.13
2023-02-11T04:17:16.517Z,102230.63
2023-02-11T04:19:43.187Z,102213.78
2023-02-11T04:22:10.180Z,102217.53
2023-02-11T04:24:36.856Z,102217.25
2023-02-11T04:27:03.604Z,102216.00
2023-02-11T04:29:30.337Z,102207.88
2023-02-11T04:31:56.944Z,102210.84
2023-02-11T04:34:24.546Z,102217.81
2023-02-11T04:36:51.175Z,102207.75
2023-02-11T04:39:17.717Z,102209.28
2023-02-11T04:41:44.440Z,102202.91
2023-02-11T04:44:11.153Z,102193.75
2023-02-11T04:46:37.797Z,102195.09
2023-02-11T04:49:04.490Z,102199.25
2023-02-11T04:51:31.148Z,102188.53
2023-02-11T04:53:57.779Z,102190.16
2023-02-11T04:56:24.484Z,102188.94
2023-02-11T04:58:51.163Z,102190.16
2023-02-11T05:01:17.863Z,102186.91
2023-02-11T05:03:44.783Z,102186.13
2023-02-11T05:06:11.777Z,102180.06
2023-02-11T05:08:38.630Z,102182.25
2023-02-11T05:11:05.752Z,102175.94
2023-02-11T05:13:32.642Z,102177.28
2023-02-11T05:15:59.374Z,102181.09
2023-02-11T05:18:25.966Z,102171.84
2023-02-11T05:20:52.547Z,102177.31
2023-02-11T05:23:19.178Z,102178.50
2023-02-11T05:25:45.782Z,102168.94
2023-02-11T05:28:12.416Z,102171.06
2023-02-11T05:30:39.077Z,102164.50
2023-02-11T05:33:05.797Z,102170.88
2023-02-11T05:35:32.486Z,102175.47
2023-02-11T05:37:59.077Z,102180.91
2023-02-11T05:40:25.691Z,102174.09
2023-02-11T05:42:52.242Z,102168.09
2023-02-11T05:45:18.838Z,102176.09
2023-02-11T05:47:45.545Z,102169.88
2023-02-11T05:50:12.181Z,102175.16
2023-02-11T05:52:38.752Z,102173.44
2023-02-11T05:55:06.000Z,102172.63
2023-02-11T05:57:32.642Z,102169.31
2023-02-11T05:59:59.351Z,102169.47
2023-02-11T06:02:26.066Z,102165.84
2023-02-11T06:04:52.710Z,102173.94
2023-02-11T06:07:19.823Z,102175.78
2023-02-11T06:09:46.440Z,102172.38
2023-02-11T06:12:13.163Z,102173.28
2023-02-11T06:14:39.769Z,102165.53
2023-02-11T06:17:06.373Z,102173.63
2023-02-11T06:19:32.943Z,102171.84
2023-02-11T06:21:59.637Z,102171.91
2023-02-11T06:24:50.986Z,102176.41
2023-02-11T06:27:12.841Z,102169.41
2023-02-11T06:29:39.518Z,102171.63
2023-02-11T06:32:06.223Z,102171.03
2023-02-11T06:34:32.871Z,102173.88
2023-02-11T06:36:59.429Z,102173.09
2023-02-11T06:39:25.941Z,102177.66
2023-02-11T06:41:52.720Z,102171.72
2023-02-11T06:44:19.291Z,102173.66
2023-02-11T06:46:46.038Z,102184.47
2023-02-11T06:49:13.419Z,102187.38
2023-02-11T06:51:40.124Z,102185.81
2023-02-11T06:54:07.385Z,102192.28
2023-02-11T06:56:34.396Z,102182.78
2023-02-11T06:59:01.132Z,102192.78
2023-02-11T07:01:28.583Z,102189.47
2023-02-11T07:03:55.236Z,102191.31
2023-02-11T07:06:24.802Z,102193.50
2023-02-11T07:08:51.552Z,102191.13
2023-02-11T07:11:24.482Z,102183.63
2023-02-11T07:13:52.013Z,102178.66
2023-02-11T07:16:19.126Z,102178.97
2023-02-11T07:18:47.116Z,102180.38
2023-02-11T07:21:16.654Z,102182.41
2023-02-11T07:23:43.670Z,102175.66
2023-02-11T07:26:13.007Z,102181.38
2023-02-11T07:28:40.767Z,102178.25
2023-02-11T07:31:07.976Z,102184.03
2023-02-11T07:33:35.348Z,102179.13
2023-02-11T07:36:01.954Z,102176.97
2023-02-11T07:38:28.558Z,102180.88
2023-02-11T07:40:55.131Z,102181.13
2023-02-11T07:43:21.803Z,102181.50
2023-02-11T07:45:48.766Z,102173.81
2023-02-11T07:48:15.541Z,102171.44
2023-02-11T07:50:42.206Z,102168.03
2023-02-11T07:53:08.771Z,102167.47
2023-02-11T07:55:35.633Z,102165.09
2023-02-11T07:58:02.146Z,102152.06
2023-02-11T08:00:28.695Z,102158.59
2023-02-11T08:02:57.313Z,102156.22
2023-02-11T08:05:24.204Z,102154.72
2023-02-11T08:07:54.702Z,102145.25
2023-02-11T08:10:21.591Z,102151.69
2023-02-11T08:12:48.338Z,102149.09
2023-02-11T08:15:15.054Z,102152.00
2023-02-11T08:17:41.594Z,102148.84
2023-02-11T08:20:08.505Z,102147.22
2023-02-11T08:22:36.501Z,102149.00
2023-02-11T08:25:03.271Z,102153.59
2023-02-11T08:27:29.874Z,102149.44
2023-02-11T08:29:56.597Z,102148.75
2023-02-11T08:32:25.603Z,102152.47
2023-02-11T08:34:53.072Z,102146.41
2023-02-11T08:37:20.337Z,102151.00
2023-02-11T08:39:47.483Z,102140.34
2023-02-11T08:42:15.732Z,102138.66
2023-02-11T08:44:43.068Z,102130.69
2023-02-11T08:47:09.783Z,102131.63
2023-02-11T08:49:36.485Z,102130.75
2023-02-11T08:52:04.265Z,102132.63
2023-02-11T08:54:31.751Z,102124.63
2023-02-11T08:56:58.301Z,102128.25
2023-02-11T08:59:25.058Z,102131.81
2023-02-11T09:01:51.980Z,102138.06
2023-02-11T09:04:18.957Z,102132.69
2023-02-11T09:06:45.852Z,102129.09
2023-02-11T09:09:14.050Z,102127.28
2023-02-11T09:11:41.971Z,102126.38
2023-02-11T09:14:15.010Z,102126.34
2023-02-11T09:16:43.161Z,102115.53
2023-02-11T09:19:10.694Z,102121.72
2023-02-11T09:21:37.345Z,102120.72
2023-02-11T09:24:04.262Z,102118.84
2023-02-11T09:26:33.817Z,102114.28
2023-02-11T09:29:01.170Z,102117.94
2023-02-11T09:31:30.194Z,102113.25
2023-02-11T09:34:02.860Z,102119.41
2023-02-11T09:36:33.060Z,102114.78
2023-02-11T09:39:01.178Z,102116.28
2023-02-11T09:41:58.613Z,102116.94
2023-02-11T09:44:28.392Z,102120.66
2023-02-11T09:46:58.631Z,102101.25
2023-02-11T09:49:42.217Z,102098.88
2023-02-11T09:52:25.034Z,102100.75
2023-02-11T09:55:01.969Z,102097.38
2023-02-11T09:57:36.525Z,102099.31
2023-02-11T10:00:18.082Z,102097.50
2023-02-11T10:03:06.421Z,102087.13
2023-02-11T10:05:35.871Z,102084.38
2023-02-11T10:08:13.645Z,102086.94
2023-02-11T10:10:46.977Z,102073.44
2023-02-11T10:13:40.859Z,102081.81
2023-02-11T10:16:24.058Z,102065.13
2023-02-11T10:19:11.359Z,102068.41
2023-02-11T10:22:05.553Z,102067.50
2023-02-11T10:24:33.726Z,102068.88
2023-02-11T10:27:00.279Z,102055.72
2023-02-11T10:29:40.678Z,102051.44
2023-02-11T10:32:43.156Z,102040.97
2023-02-11T10:35:18.059Z,102040.47
2023-02-11T10:37:45.597Z,102042.03
2023-02-11T10:40:32.504Z,102036.22
2023-02-11T10:43:03.957Z,102033.44
2023-02-11T10:45:32.779Z,102020.81
2023-02-11T10:48:01.628Z,102018.19
2023-02-11T10:50:32.555Z,102008.06
2023-02-11T10:53:24.394Z,102011.50
2023-02-11T10:55:55.918Z,102004.22
2023-02-11T10:58:30.618Z,101995.69
2023-02-11T11:01:00.034Z,102000.78
2023-02-11T11:03:32.245Z,101994.81
2023-02-11T11:06:02.137Z,101985.78
2023-02-11T11:08:42.637Z,101988.22
2023-02-11T11:11:15.094Z,101990.41
2023-02-11T11:14:03.812Z,101983.41
2023-02-11T11:16:36.651Z,101983.75
2023-02-11T11:19:06.155Z,101983.06
2023-02-11T11:21:47.719Z,101980.19
2023-02-11T11:24:34.406Z,101979.19
2023-02-11T11:27:04.186Z,101976.81
2023-02-11T11:29:36.702Z,101983.31
2023-02-11T11:32:06.832Z,101975.16
2023-02-11T11:34:48.404Z,101970.41
2023-02-11T11:37:22.710Z,101963.28
2023-02-11T11:40:08.124Z,101956.13
2023-02-11T11:42:37.444Z,101957.25
2023-02-11T11:45:24.916Z,101946.44
2023-02-11T11:48:10.714Z,101948.31
2023-02-11T11:50:43.510Z,101937.25
2023-02-11T11:53:28.928Z,101934.78
2023-02-11T11:56:20.165Z,101935.84
2023-02-11T11:58:47.183Z,101943.16
2023-02-11T12:01:22.795Z,101933.75
2023-02-11T12:04:23.179Z,101940.44
2023-02-11T12:07:20.825Z,101929.66
2023-02-11T12:10:22.861Z,101931.22
2023-02-11T12:13:32.700Z,101926.56
2023-02-11T12:16:21.404Z,101926.97
2023-02-11T12:19:13.960Z,101917.34
2023-02-11T12:21:48.537Z,101918.72
2023-02-11T12:24:29.684Z,101901.00
2023-02-11T12:27:09.850Z,101896.50
2023-02-11T12:30:01.931Z,101901.00
2023-02-11T12:33:00.986Z,101890.16
2023-02-11T12:36:05.125Z,101906.63
2023-02-11T12:38:50.980Z,101895.78
2023-02-11T12:42:00.501Z,101885.50
2023-02-11T12:44:53.239Z,101878.34
2023-02-11T12:47:38.099Z,101878.59
2023-02-11T12:50:05.252Z,101859.63
2023-02-11T12:52:46.794Z,101859.66
2023-02-11T12:55:26.920Z,101857.53
2023-02-11T12:57:57.050Z,101857.28
2023-02-11T13:00:29.212Z,101848.25
2023-02-11T13:03:11.079Z,101846.19
2023-02-11T13:05:50.171Z,101850.34
2023-02-11T13:08:24.964Z,101848.38
2023-02-11T13:10:57.788Z,101841.72
2023-02-11T13:13:33.480Z,101844.84
2023-02-11T13:16:11.815Z,101848.81
2023-02-11T13:18:49.591Z,101842.75
2023-02-11T13:21:16.473Z,101841.44
2023-02-11T13:23:52.278Z,101838.91
2023-02-11T13:26:33.344Z,101832.03
2023-02-11T13:29:14.802Z,101835.94
2023-02-11T13:31:41.645Z,101829.94
2023-02-11T13:34:46.668Z,101822.56
2023-02-11T13:37:23.895Z,101819.00
2023-02-11T13:40:19.720Z,101813.16
2023-02-11T13:43:02.728Z,101815.41
2023-02-11T13:45:40.056Z,101808.25
2023-02-11T13:48:23.733Z,101810.97
2023-02-11T13:50:54.365Z,101801.34
2023-02-11T13:53:21.385Z,101796.66
2023-02-11T13:55:52.179Z,101786.53
2023-02-11T13:58:36.449Z,101787.56
2023-02-11T14:01:03.503Z,101784.72
2023-02-11T14:03:56.952Z,101783.88
2023-02-11T14:06:45.208Z,101773.13
2023-02-11T14:09:14.630Z,101773.53
2023-02-11T14:11:41.700Z,101772.59
2023-02-11T14:14:21.781Z,101768.16
2023-02-11T14:17:00.501Z,101764.75
2023-02-11T14:19:43.753Z,101765.75
2023-02-11T14:22:10.265Z,101768.53
2023-02-11T14:24:36.744Z,101757.75
2023-02-11T14:27:23.210Z,101767.53
2023-02-11T14:30:30.903Z,101760.19
2023-02-11T14:33:15.972Z,101756.81
2023-02-11T14:36:13.122Z,101754.72
2023-02-11T14:38:52.913Z,101754.91
2023-02-11T14:41:25.813Z,101752.41
2023-02-11T14:43:55.714Z,101745.16
2023-02-11T14:46:24.516Z,101745.28
2023-02-11T14:48:55.386Z,101750.03
2023-02-11T14:51:26.667Z,101754.56
2023-02-11T14:54:00.648Z,101750.19
2023-02-11T14:56:31.223Z,101755.47
2023-02-11T14:58:58.705Z,101749.09
2023-02-11T15:01:35.408Z,101754.53
2023-02-11T15:04:05.487Z,101749.31
2023-02-11T15:06:33.426Z,101753.22
2023-02-11T15:09:07.864Z,101749.69
2023-02-11T15:11:39.897Z,101759.72
2023-02-11T15:14:10.052Z,101754.50
2023-02-11T15:16:41.413Z,101735.69
2023-02-11T15:19:17.055Z,101743.06
2023-02-11T15:21:45.858Z,101745.75
2023-02-11T15:24:25.551Z,101753.06
2023-02-11T15:27:16.251Z,101758.59
2023-02-11T15:29:46.691Z,101759.56
2023-02-11T15:32:24.926Z,101753.28
2023-02-11T15:34:53.929Z,101752.50
2023-02-11T15:37:22.164Z,101748.13
2023-02-11T15:39:49.378Z,101743.81
2023-02-11T15:42:27.913Z,101741.25
2023-02-11T15:45:24.734Z,101745.09
2023-02-11T15:47:54.468Z,101737.25
2023-02-11T15:50:24.481Z,101734.63
2023-02-11T15:52:51.974Z,101723.16
2023-02-11T15:55:19.570Z,101732.25
2023-02-11T15:57:51.354Z,101728.81
2023-02-11T16:00:21.198Z,101719.06
2023-02-11T16:02:49.681Z,101725.38
2023-02-11T16:05:33.533Z,101731.78
2023-02-11T16:08:01.721Z,101736.25
2023-02-11T16:10:33.491Z,101739.78
2023-02-11T16:13:06.205Z,101735.22
2023-02-11T16:15:52.628Z,101735.22
2023-02-11T16:18:38.468Z,101730.75
2023-02-11T16:21:13.109Z,101733.38
2023-02-11T16:23:42.450Z,101738.75
2023-02-11T16:26:39.383Z,101722.84
2023-02-11T16:29:17.907Z,101726.59
2023-02-11T16:31:47.368Z,101726.66
2023-02-11T16:34:17.072Z,101728.56
2023-02-11T16:36:44.006Z,101708.06
2023-02-11T16:39:11.238Z,101710.81
2023-02-11T16:41:37.853Z,101717.19
2023-02-11T16:44:04.756Z,101728.88
2023-02-11T16:46:32.016Z,101732.50
2023-02-11T16:49:10.288Z,101727.25
2023-02-11T16:51:40.406Z,101725.53
2023-02-11T16:54:07.059Z,101717.56
2023-02-11T16:56:33.591Z,101712.22
2023-02-11T16:59:00.732Z,101712.25
2023-02-11T17:01:27.394Z,101704.28
2023-02-11T17:03:54.062Z,101705.19
2023-02-11T17:06:20.732Z,101698.19
2023-02-11T17:08:47.332Z,101703.56
2023-02-11T17:11:17.124Z,101694.63
2023-02-11T17:13:44.107Z,101696.41
2023-02-11T17:16:22.602Z,101699.06
2023-02-11T17:18:49.525Z,101699.09
2023-02-11T17:21:16.350Z,101699.09
2023-02-11T17:23:43.557Z,101694.69
2023-02-11T17:26:10.328Z,101704.50
2023-02-11T17:28:36.955Z,101694.72
2023-02-11T17:31:08.695Z,101690.31
2023-02-11T17:33:36.360Z,101693.00
2023-02-11T17:36:08.006Z,101695.69
2023-02-11T17:38:35.359Z,101684.13
2023-02-11T17:41:02.848Z,101673.44
2023-02-11T17:43:29.412Z,101659.19
2023-02-11T17:45:56.070Z,101653.88
2023-02-11T17:48:22.716Z,101657.44
2023-02-11T17:50:49.347Z,101668.13
2023-02-11T17:53:15.902Z,101656.56
2023-02-11T17:55:42.459Z,101668.13
2023-02-11T17:58:09.057Z,101664.56
2023-02-11T18:00:35.656Z,101668.13
2023-02-11T18:03:03.318Z,101660.09
2023-02-11T18:05:37.459Z,101655.66
2023-02-11T18:08:06.056Z,101662.75
2023-02-11T18:10:33.570Z,101670.75
2023-02-11T18:13:01.343Z,101657.34
2023-02-11T18:15:27.975Z,101667.97
2023-02-11T18:17:55.837Z,101664.38
2023-02-11T18:20:22.463Z,101664.34
2023-02-11T18:22:49.068Z,101665.19
2023-02-11T18:25:16.130Z,101666.06
2023-02-11T18:27:42.932Z,101658.94
2023-02-11T18:30:15.397Z,101662.50
2023-02-11T18:32:42.103Z,101658.06
2023-02-11T18:35:14.814Z,101656.28
2023-02-11T18:37:42.648Z,101657.13
2023-02-11T18:40:10.521Z,101648.22
2023-02-11T18:42:37.113Z,101651.75
2023-02-11T18:45:09.647Z,101651.75
2023-02-11T18:47:40.623Z,101645.53
2023-02-11T18:50:09.185Z,101642.78
2023-02-11T18:52:38.967Z,101648.13
2023-02-11T18:55:06.643Z,101645.41
2023-02-11T18:57:33.268Z,101644.41
2023-02-11T19:00:00.081Z,101646.25
2023-02-11T19:02:26.978Z,101647.16
2023-02-11T19:04:53.511Z,101642.59
2023-02-11T19:07:20.267Z,101647.94
2023-02-11T19:09:46.774Z,101639.84
2023-02-11T19:12:13.484Z,101647.94
2023-02-11T19:14:40.082Z,101649.69
2023-02-11T19:17:07.691Z,101652.31
2023-02-11T19:19:36.140Z,101655.88
2023-02-11T19:22:07.918Z,101653.19
2023-02-11T19:24:37.312Z,101654.91
2023-02-11T19:27:04.964Z,101641.50
2023-02-11T19:29:33.448Z,101644.22
2023-02-11T19:32:00.080Z,101646.91
2023-02-11T19:34:26.769Z,101641.50
2023-02-11T19:36:54.393Z,101639.75
2023-02-11T19:39:21.076Z,101645.97
2023-02-11T19:41:47.598Z,101642.38
2023-02-11T19:44:14.746Z,101648.59
2023-02-11T19:46:41.443Z,101641.47
2023-02-11T19:49:10.030Z,101644.13
2023-02-11T19:51:39.415Z,101630.75
2023-02-11T19:54:07.106Z,101631.63
2023-02-11T19:56:34.417Z,101647.69
2023-02-11T19:59:02.908Z,101653.06
2023-02-11T20:01:29.472Z,101654.84
2023-02-11T20:03:57.495Z,101638.72
2023-02-11T20:06:28.071Z,101637.81
2023-02-11T20:08:58.635Z,101632.50
2023-02-11T20:11:28.124Z,101648.53
2023-02-11T20:13:55.128Z,101626.13
2023-02-11T20:16:27.087Z,101619.91
2023-02-11T20:19:00.948Z,101623.50
2023-02-11T20:21:31.620Z,101617.22
2023-02-11T20:23:59.207Z,101610.97
2023-02-11T20:26:32.229Z,101610.06
2023-02-11T20:29:03.590Z,101600.19
2023-02-11T20:31:32.319Z,101604.69
2023-02-11T20:33:59.914Z,101599.28
2023-02-11T20:36:32.414Z,101594.78
2023-02-11T20:39:00.376Z,101589.38
2023-02-11T20:41:32.012Z,101600.00
2023-02-11T20:44:01.743Z,101603.59
2023-02-11T20:46:30.327Z,101599.13
2023-02-11T20:48:57.633Z,101596.41
2023-02-11T20:51:31.495Z,101592.81
2023-02-11T20:53:59.450Z,101590.06
2023-02-11T20:56:31.495Z,101586.44
2023-02-11T20:58:59.298Z,101586.38
2023-02-11T21:01:31.760Z,101572.97
2023-02-11T21:04:02.257Z,101574.69
2023-02-11T21:06:36.349Z,101576.44
2023-02-11T21:09:05.011Z,101585.31
2023-02-11T21:11:31.738Z,101579.03
2023-02-11T21:13:59.196Z,101578.97
2023-02-11T21:16:26.948Z,101582.56
2023-02-11T21:18:55.422Z,101580.66
2023-02-11T21:21:22.259Z,101580.66
2023-02-11T21:23:48.815Z,101577.94
2023-02-11T21:26:16.978Z,101589.38
2023-02-11T21:28:44.371Z,101581.31
2023-02-11T21:31:19.465Z,101577.72
2023-02-11T21:33:46.095Z,101582.09
2023-02-11T21:36:14.070Z,101580.47
2023-02-11T21:38:41.217Z,101574.13
2023-02-11T21:41:07.845Z,101576.81
2023-02-11T21:43:34.576Z,101567.84
2023-02-11T21:46:01.553Z,101573.19
2023-02-11T21:48:28.546Z,101574.06
2023-02-11T21:50:55.170Z,101573.06
2023-02-11T21:53:21.738Z,101565.88
2023-02-11T21:55:51.613Z,101552.44
2023-02-11T21:58:18.311Z,101562.22
2023-02-11T22:00:44.905Z,101556.81
2023-02-11T22:03:12.366Z,101560.28
2023-02-11T22:05:41.146Z,101563.88
2023-02-11T22:08:07.755Z,101566.50
2023-02-11T22:10:34.310Z,101549.41
2023-02-11T22:13:00.848Z,101549.47
2023-02-11T22:15:27.474Z,101555.78
2023-02-11T22:17:56.132Z,101548.59
2023-02-11T22:20:23.091Z,101548.69
2023-02-11T22:22:50.868Z,101554.97
2023-02-11T22:25:17.914Z,101552.34
2023-02-11T22:27:44.693Z,101544.25
2023-02-11T22:30:11.823Z,101548.72
2023-02-11T22:32:38.380Z,101543.47
2023-02-11T22:35:05.189Z,101540.72
2023-02-11T22:37:31.797Z,101543.47
2023-02-11T22:39:58.333Z,101540.84
2023-02-11T22:42:24.915Z,101542.53
2023-02-11T22:44:51.578Z,101536.25
2023-02-11T22:47:18.110Z,101540.84
2023-02-11T22:49:44.674Z,101529.13
2023-02-11T22:52:12.295Z,101539.81
2023-02-11T22:54:38.972Z,101539.72
2023-02-11T22:57:05.569Z,101545.03
2023-02-11T22:59:32.130Z,101539.44
2023-02-11T23:01:58.830Z,101538.56
2023-02-11T23:04:25.430Z,101532.19
2023-02-11T23:06:52.141Z,101527.00
2023-02-11T23:09:18.768Z,101534.19
2023-02-11T23:11:45.574Z,101527.00
2023-02-11T23:14:12.353Z,101517.03
2023-02-11T23:16:39.405Z,101510.81
2023-02-11T23:19:08.435Z,101510.78
2023-02-11T23:21:38.133Z,101508.09
2023-02-11T23:24:08.428Z,101513.41
2023-02-11T23:26:37.235Z,101510.72
2023-02-11T23:29:04.034Z,101510.72
2023-02-11T23:31:37.857Z,101511.56
2023-02-11T23:34:04.825Z,101512.41
2023-02-11T23:36:31.561Z,101504.28
2023-02-11T23:38:58.128Z,101502.56
2023-02-11T23:41:25.299Z,101496.25
2023-02-11T23:43:54.070Z,101498.03
2023-02-11T23:46:22.021Z,101493.44
2023-02-11T23:48:50.033Z,101494.38
2023-02-11T23:51:16.693Z,101496.94
2023-02-11T23:53:45.751Z,101496.03
2023-02-11T23:56:19.143Z,101498.63
2023-02-11T23:58:49.043Z,101489.72
